Strona główna
METAR-TAF:

METAR-TAF

Lotnisko :

Port lotniczy Nawakszut

Nawakszut, Mauretania

Szerokość geograficzna: 18-18-36N, Długość geograficzna: 015-58-11W, wysokość: 3 m

Aktualna obserwacja pogody

Raport powstał 42 minut temu, godzina 03:30 UTC
Wiatr 8 kt od północno-północny wschód
Temperatura 19°C
Wilgotność 26%
Ciśnienie 1014 hPa
Widzialność: 7000 m

METAR: GQNO 110330Z 03008KT 7000 NSC 19/M01 Q1014 NOSIG

czas: 04:12 (04:12 UTC)

Prognoza

Raport powstał 5 godziny i 12 minut temu, godzina 23:00 UTC
Prognoza ważna od 11 godzina 00 UTC do 12 godzina 06 UTC
Wiatr 10 kt od północny wschód
Widzialność: 7000 m
Stopniowe zmiany
od 11 godzina 08 UTC do 11 godzina 10 UTC
Wiatr 15 kt od wschód
Widzialność: 3000 m
zawieja pyłowa
Stopniowe zmiany
od 11 godzina 18 UTC do 11 godzina 21 UTC
Wiatr 10 kt od północny wschód
Widzialność: 6000 m

TAF: GQNO 102300Z 1100/1206 04010KT 7000 NSC BECMG 1108/1110 10015KT 3000 BLDU BECMG 1118/1121 04010KT 6000 NSW

Obserwacja i prognoza pogody dla ponad 4000 lotnisk (raport METAR i TAF).

Dostępne stacje oznaczono żółtymi i czerwonymi punktami na mapie.

Najedź kursorem aby zobaczyć nazwę stacji.

Kliknij aby zobaczyć obserwacje i prognozy pogody.

Aby zmienić mapę: kliknij na zielony przycisk z czarnym krzyżykiem, aby powiększyć; na zielony przycisk z myślnikiem, aby pomniejszyć; na zielone strzałki, aby przejść do map sąsiednich.


METAR-TAF: